createdAt,value
2022-10-24T00:02:14.079Z,4.57
2022-10-24T00:04:52.904Z,5.73
2022-10-24T00:07:21.155Z,3.70
2022-10-24T00:09:56.578Z,3.50
2022-10-24T00:12:25.003Z,3.47
2022-10-24T00:14:56.885Z,5.10
2022-10-24T00:17:35.535Z,5.17
2022-10-24T00:20:04.711Z,4.80
2022-10-24T00:22:33.104Z,4.10
2022-10-24T00:25:01.650Z,4.70
2022-10-24T00:27:30.019Z,5.07
2022-10-24T00:30:07.497Z,6.60
2022-10-24T00:32:37.170Z,8.03
2022-10-24T00:35:06.441Z,4.03
2022-10-24T00:37:40.553Z,4.67
2022-10-24T00:40:11.476Z,3.80
2022-10-24T00:42:40.020Z,5.27
2022-10-24T00:45:47.559Z,4.17
2022-10-24T00:48:29.581Z,4.23
2022-10-24T00:51:03.219Z,5.03
2022-10-24T00:53:37.175Z,4.20
2022-10-24T00:56:09.458Z,6.10
2022-10-24T00:58:40.303Z,5.03
2022-10-24T01:01:15.913Z,7.73
2022-10-24T01:06:48.560Z,5.93
2022-10-24T01:09:36.254Z,5.77
2022-10-24T01:12:23.335Z,5.00
2022-10-24T01:15:03.186Z,4.50
2022-10-24T01:17:39.778Z,5.70
2022-10-24T01:21:26.234Z,3.90
2022-10-24T01:24:33.585Z,4.80
2022-10-24T01:27:49.681Z,4.40
2022-10-24T01:30:21.821Z,7.13
2022-10-24T01:32:58.719Z,5.03
2022-10-24T01:35:40.443Z,7.10
2022-10-24T01:38:18.519Z,7.53
2022-10-24T01:40:55.265Z,5.87
2022-10-24T01:43:28.453Z,3.90
2022-10-24T01:46:04.998Z,5.90
2022-10-24T01:48:39.866Z,2.63
2022-10-24T01:51:10.814Z,6.30
2022-10-24T01:53:40.860Z,5.23
2022-10-24T01:56:21.550Z,6.40
2022-10-24T01:59:06.814Z,5.30
2022-10-24T02:01:41.306Z,8.53
2022-10-24T02:04:12.517Z,5.53
2022-10-24T02:06:51.322Z,4.20
2022-10-24T02:09:34.272Z,5.93
2022-10-24T02:12:02.888Z,7.37
2022-10-24T02:14:46.151Z,7.07
2022-10-24T02:17:24.697Z,6.43
2022-10-24T02:20:34.301Z,6.30
2022-10-24T02:29:45.461Z,7.80
2022-10-24T02:32:44.403Z,6.77
2022-10-24T02:35:18.987Z,5.67
2022-10-24T02:38:08.699Z,5.67
2022-10-24T02:40:38.367Z,7.23
2022-10-24T02:43:29.152Z,6.17
2022-10-24T02:46:11.317Z,5.00
2022-10-24T02:51:52.680Z,8.73
2022-10-24T02:54:26.636Z,9.40
2022-10-24T03:00:01.209Z,6.47
2022-10-24T03:02:29.411Z,8.90
2022-10-24T03:04:58.879Z,5.80
2022-10-24T03:07:27.100Z,9.83
2022-10-24T03:09:55.254Z,8.33
2022-10-24T03:12:24.214Z,8.10
2022-10-24T03:14:52.341Z,5.80
2022-10-24T03:17:21.764Z,8.20
2022-10-24T03:19:50.385Z,6.97
2022-10-24T03:22:20.015Z,6.50
2022-10-24T03:24:55.282Z,6.80
2022-10-24T03:27:24.217Z,6.13
2022-10-24T03:29:52.297Z,11.00
2022-10-24T03:32:20.560Z,7.50
2022-10-24T03:34:48.671Z,8.87
2022-10-24T03:37:16.748Z,11.03
2022-10-24T03:39:46.700Z,7.23
2022-10-24T03:42:14.767Z,7.07
2022-10-24T03:44:42.850Z,6.00
2022-10-24T03:47:11.002Z,7.27
2022-10-24T03:49:39.127Z,5.20
2022-10-24T03:52:07.659Z,7.17
2022-10-24T03:54:36.539Z,8.30
2022-10-24T03:57:06.269Z,7.30
2022-10-24T03:59:34.405Z,8.00
2022-10-24T04:02:03.063Z,8.70
2022-10-24T04:04:31.435Z,10.10
2022-10-24T04:07:00.339Z,7.37
2022-10-24T04:09:29.117Z,7.87
2022-10-24T04:11:57.174Z,8.03
2022-10-24T04:14:26.626Z,7.10
2022-10-24T04:16:54.764Z,7.37
2022-10-24T04:19:23.737Z,8.90
2022-10-24T04:21:51.865Z,6.30
2022-10-24T04:24:20.382Z,10.67
2022-10-24T04:26:48.537Z,11.17
2022-10-24T04:29:16.606Z,6.63
2022-10-24T04:31:46.030Z,5.87
2022-10-24T04:34:14.169Z,5.93
2022-10-24T04:36:42.274Z,7.20
2022-10-24T04:39:10.458Z,10.87
2022-10-24T04:41:38.738Z,4.33
2022-10-24T04:44:07.034Z,5.57
2022-10-24T04:46:35.177Z,3.83
2022-10-24T04:49:05.325Z,4.97
2022-10-24T04:51:33.416Z,6.33
2022-10-24T04:54:01.541Z,5.57
2022-10-24T04:56:29.652Z,7.00
2022-10-24T04:58:58.113Z,9.57
2022-10-24T05:01:26.265Z,6.80
2022-10-24T05:03:54.415Z,5.03
2022-10-24T05:06:25.753Z,8.03
2022-10-24T05:08:53.875Z,5.57
2022-10-24T05:11:21.964Z,8.80
2022-10-24T05:13:50.126Z,7.03
2022-10-24T05:16:19.438Z,3.37
2022-10-24T05:18:47.573Z,6.23
2022-10-24T05:21:15.710Z,6.40
2022-10-24T05:23:45.260Z,6.20
2022-10-24T05:26:13.388Z,5.60
2022-10-24T05:28:41.481Z,7.83
2022-10-24T05:31:09.628Z,7.60
2022-10-24T05:33:37.808Z,4.67
2022-10-24T05:36:08.749Z,5.10
2022-10-24T05:38:37.156Z,4.53
2022-10-24T05:41:06.915Z,6.63
2022-10-24T05:43:35.080Z,5.57
2022-10-24T05:46:03.352Z,5.03
2022-10-24T05:48:31.449Z,4.73
2022-10-24T05:51:00.349Z,7.27
2022-10-24T05:53:28.643Z,5.57
2022-10-24T05:55:58.377Z,5.90
2022-10-24T05:58:27.840Z,4.97
2022-10-24T06:00:55.956Z,3.97
2022-10-24T06:03:24.693Z,6.50
2022-10-24T06:05:52.905Z,6.37
2022-10-24T06:08:21.037Z,7.50
2022-10-24T06:10:51.029Z,9.23
2022-10-24T06:13:19.578Z,5.50
2022-10-24T06:15:48.960Z,7.53
2022-10-24T06:18:17.062Z,7.53
2022-10-24T06:20:45.088Z,4.00
2022-10-24T06:23:13.303Z,4.20
2022-10-24T06:25:42.457Z,4.80
2022-10-24T06:28:12.226Z,5.43
2022-10-24T06:30:41.462Z,4.77
2022-10-24T06:33:11.507Z,4.47
2022-10-24T06:35:39.680Z,6.50
2022-10-24T06:38:07.854Z,8.93
2022-10-24T06:40:39.798Z,6.80
2022-10-24T06:43:08.810Z,5.17
2022-10-24T06:45:38.894Z,5.57
2022-10-24T06:48:07.690Z,6.40
2022-10-24T06:50:40.402Z,3.67
2022-10-24T06:53:09.271Z,7.13
2022-10-24T06:55:40.449Z,6.10
2022-10-24T06:58:08.743Z,5.30
2022-10-24T07:00:38.982Z,5.80
2022-10-24T07:03:07.121Z,2.77
2022-10-24T07:05:38.223Z,6.40
2022-10-24T07:08:07.279Z,4.33
2022-10-24T07:10:35.658Z,5.07
2022-10-24T07:13:03.780Z,4.97
2022-10-24T07:15:31.911Z,4.80
2022-10-24T07:18:01.887Z,6.27
2022-10-24T07:20:30.414Z,5.20
2022-10-24T07:23:00.002Z,5.03
2022-10-24T07:25:29.601Z,7.63
2022-10-24T07:27:57.719Z,5.27
2022-10-24T07:30:26.136Z,4.50
2022-10-24T07:32:55.590Z,5.60
2022-10-24T07:35:23.821Z,4.83
2022-10-24T07:37:53.436Z,4.53
2022-10-24T07:40:23.098Z,5.33
2022-10-24T07:42:51.196Z,4.50
2022-10-24T07:45:19.499Z,3.90
2022-10-24T07:47:48.407Z,5.63
2022-10-24T07:50:17.268Z,5.97
2022-10-24T07:52:45.363Z,5.30
2022-10-24T07:55:13.524Z,5.33
2022-10-24T07:57:43.426Z,5.53
2022-10-24T08:00:13.562Z,3.83
2022-10-24T08:02:41.846Z,4.93
2022-10-24T08:05:12.155Z,5.03
2022-10-24T08:07:40.248Z,3.70
2022-10-24T08:10:10.331Z,4.70
2022-10-24T08:12:38.511Z,4.43
2022-10-24T08:15:09.295Z,7.57
2022-10-24T08:17:37.788Z,6.90
2022-10-24T08:20:07.124Z,3.80
2022-10-24T08:22:36.024Z,7.50
2022-10-24T08:25:06.378Z,7.80
2022-10-24T08:27:34.514Z,4.43
2022-10-24T08:30:02.641Z,5.13
2022-10-24T08:32:32.083Z,5.70
2022-10-24T08:35:00.381Z,2.93
2022-10-24T08:37:28.831Z,6.17
2022-10-24T08:39:56.905Z,4.87
2022-10-24T08:42:26.845Z,5.37
2022-10-24T08:44:55.798Z,5.47
2022-10-24T08:50:15.245Z,6.33
2022-10-24T08:52:47.951Z,5.17
2022-10-24T08:55:25.648Z,4.70
2022-10-24T08:58:15.826Z,3.83
2022-10-24T09:00:47.159Z,6.50
2022-10-24T09:03:37.212Z,5.13
2022-10-24T09:06:19.291Z,8.50
2022-10-24T09:08:53.197Z,6.23
2022-10-24T09:11:31.192Z,6.43
2022-10-24T09:14:02.375Z,6.27
2022-10-24T09:16:30.756Z,5.77
2022-10-24T09:19:00.895Z,11.10
2022-10-24T09:21:29.177Z,4.43
2022-10-24T09:23:57.800Z,4.80
2022-10-24T09:26:30.176Z,5.60
2022-10-24T09:28:58.509Z,6.70
2022-10-24T09:31:28.402Z,5.83
2022-10-24T09:34:00.309Z,7.97
2022-10-24T09:36:31.967Z,4.90
2022-10-24T09:39:32.920Z,8.63
2022-10-24T09:42:02.134Z,6.63
2022-10-24T09:44:40.804Z,5.13
2022-10-24T09:47:25.269Z,6.80
2022-10-24T09:49:54.045Z,5.90
2022-10-24T09:52:26.662Z,6.50
2022-10-24T09:55:13.372Z,3.50
2022-10-24T09:57:41.841Z,8.60
2022-10-24T10:00:24.481Z,5.90
2022-10-24T10:03:03.008Z,7.03
2022-10-24T10:05:46.092Z,6.40
2022-10-24T10:08:21.406Z,6.17
2022-10-24T10:11:07.856Z,7.23
2022-10-24T10:13:49.359Z,5.67
2022-10-24T10:16:26.044Z,4.90
2022-10-24T10:19:04.710Z,4.17
2022-10-24T10:21:56.466Z,3.67
2022-10-24T10:24:40.821Z,7.53
2022-10-24T10:27:33.215Z,5.40
2022-10-24T10:30:19.660Z,7.70
2022-10-24T10:33:15.790Z,5.33
2022-10-24T10:35:51.623Z,4.10
2022-10-24T10:38:57.888Z,2.83
2022-10-24T10:41:42.114Z,3.13
2022-10-24T10:44:32.494Z,5.30
2022-10-24T10:47:14.007Z,5.10
2022-10-24T10:49:44.124Z,5.67
2022-10-24T10:52:17.343Z,6.77
2022-10-24T10:55:07.215Z,5.33
2022-10-24T10:57:45.959Z,10.57
2022-10-24T11:00:17.195Z,4.40
2022-10-24T11:03:18.182Z,3.40
2022-10-24T11:05:55.423Z,4.13
2022-10-24T11:08:42.605Z,2.90
2022-10-24T11:11:17.553Z,4.43
2022-10-24T11:13:56.911Z,4.30
2022-10-24T11:16:29.420Z,5.77
2022-10-24T11:19:03.155Z,3.37
2022-10-24T11:21:34.581Z,2.73
2022-10-24T11:24:13.459Z,4.83
2022-10-24T11:26:47.018Z,5.70
2022-10-24T11:29:24.894Z,4.57
2022-10-24T11:31:58.134Z,2.97
2022-10-24T11:34:32.579Z,3.93
2022-10-24T11:37:07.522Z,4.20
2022-10-24T11:39:43.888Z,2.63
2022-10-24T11:42:17.242Z,5.13
2022-10-24T11:44:55.024Z,3.33
2022-10-24T11:47:49.026Z,3.30
2022-10-24T11:50:28.269Z,2.67
2022-10-24T11:53:03.969Z,3.50
2022-10-24T11:55:38.800Z,5.53
2022-10-24T11:58:15.090Z,4.80
2022-10-24T12:01:12.347Z,4.23
2022-10-24T12:04:43.031Z,5.60
2022-10-24T12:07:58.575Z,4.43
2022-10-24T12:10:50.401Z,2.30
2022-10-24T12:13:54.705Z,4.03
2022-10-24T12:16:40.019Z,5.23
2022-10-24T12:19:15.043Z,3.30
2022-10-24T12:21:48.823Z,3.73
2022-10-24T12:24:30.176Z,4.10
2022-10-24T12:27:02.644Z,3.53
2022-10-24T12:29:34.172Z,4.27
2022-10-24T12:32:25.295Z,3.00
2022-10-24T12:35:25.190Z,3.57
2022-10-24T12:37:49.137Z,6.03
2022-10-24T12:40:55.581Z,4.33
2022-10-24T12:43:36.117Z,4.00
2022-10-24T12:46:54.543Z,4.23
2022-10-24T12:49:30.343Z,5.17
2022-10-24T12:51:59.002Z,3.13
2022-10-24T12:54:42.230Z,4.30
2022-10-24T12:57:33.022Z,3.00
2022-10-24T13:00:03.061Z,3.87
2022-10-24T13:03:06.864Z,2.27
2022-10-24T13:05:57.893Z,5.07
2022-10-24T13:08:48.331Z,3.50
2022-10-24T13:11:41.385Z,2.90
2022-10-24T13:14:31.198Z,5.17
2022-10-24T13:17:06.711Z,3.70
2022-10-24T13:19:35.050Z,5.37
2022-10-24T13:22:04.728Z,9.90
2022-10-24T13:24:37.232Z,4.00
2022-10-24T13:27:29.179Z,3.47
2022-10-24T13:30:33.779Z,3.07
2022-10-24T13:33:42.727Z,3.23
2022-10-24T13:36:18.518Z,4.17
2022-10-24T13:38:53.810Z,3.83
2022-10-24T13:41:29.161Z,3.13
2022-10-24T13:44:04.448Z,4.87
2022-10-24T13:46:42.146Z,5.70
2022-10-24T13:49:18.829Z,5.67
2022-10-24T13:51:52.493Z,5.30
2022-10-24T13:54:26.221Z,5.80
2022-10-24T13:56:57.135Z,3.17
2022-10-24T13:59:34.648Z,2.10
2022-10-24T14:02:06.294Z,2.70
2022-10-24T14:04:36.148Z,1.97
2022-10-24T14:07:07.150Z,4.87
2022-10-24T14:09:43.367Z,3.87
2022-10-24T14:12:20.677Z,3.80
2022-10-24T14:14:51.599Z,2.40
2022-10-24T14:17:26.005Z,4.33
2022-10-24T14:19:57.254Z,3.90
2022-10-24T14:22:29.487Z,2.20
2022-10-24T14:24:59.097Z,4.23
2022-10-24T14:27:27.522Z,1.70
2022-10-24T14:30:01.990Z,4.93
2022-10-24T14:32:32.434Z,4.97
2022-10-24T14:35:02.754Z,3.67
2022-10-24T14:37:36.204Z,2.53
2022-10-24T14:40:08.211Z,3.50
2022-10-24T14:42:36.512Z,4.20
2022-10-24T14:45:05.607Z,3.77
2022-10-24T14:47:38.897Z,2.53
2022-10-24T14:50:41.825Z,3.93
2022-10-24T14:53:25.142Z,2.80
2022-10-24T14:55:58.416Z,2.30
2022-10-24T14:58:29.653Z,2.87
2022-10-24T15:00:58.888Z,5.13
2022-10-24T15:03:29.157Z,3.03
2022-10-24T15:06:10.770Z,2.93
2022-10-24T15:11:22.184Z,2.93
2022-10-24T15:14:06.178Z,3.30
2022-10-24T15:16:38.654Z,5.17
2022-10-24T15:19:13.888Z,4.50
2022-10-24T15:21:46.039Z,3.23
2022-10-24T15:24:23.330Z,3.27
2022-10-24T15:27:11.787Z,4.33
2022-10-24T15:29:42.498Z,4.63
2022-10-24T15:32:12.606Z,5.20
2022-10-24T15:34:42.386Z,3.50
2022-10-24T15:37:23.136Z,5.00
2022-10-24T15:39:51.894Z,4.07
2022-10-24T15:42:29.937Z,3.97
2022-10-24T15:44:59.381Z,3.50
2022-10-24T15:47:27.590Z,2.87
2022-10-24T15:49:55.648Z,5.93
2022-10-24T15:52:23.830Z,4.37
2022-10-24T15:54:51.943Z,3.80
2022-10-24T15:57:21.938Z,4.40
2022-10-24T15:59:50.049Z,3.10
2022-10-24T16:02:23.884Z,3.23
2022-10-24T16:04:52.115Z,3.70
2022-10-24T16:07:20.666Z,4.40
2022-10-24T16:09:48.828Z,3.97
2022-10-24T16:12:16.983Z,6.97
2022-10-24T16:14:46.582Z,4.47
2022-10-24T16:17:14.670Z,6.57
2022-10-24T16:19:42.783Z,2.33
2022-10-24T16:22:11.449Z,3.70
2022-10-24T16:24:39.579Z,6.13
2022-10-24T16:27:08.089Z,4.33
2022-10-24T16:29:36.252Z,3.70
2022-10-24T16:32:06.184Z,4.43
2022-10-24T16:34:34.306Z,5.20
2022-10-24T16:37:03.646Z,3.67
2022-10-24T16:39:33.775Z,3.27
2022-10-24T16:42:04.608Z,3.70
2022-10-24T16:44:36.876Z,4.90
2022-10-24T16:47:06.952Z,3.33
2022-10-24T16:49:35.053Z,3.37
2022-10-24T16:52:03.249Z,7.33
2022-10-24T16:54:33.484Z,2.90
2022-10-24T16:57:01.614Z,3.73
2022-10-24T16:59:29.746Z,4.23
2022-10-24T17:01:57.964Z,5.00
2022-10-24T17:04:32.802Z,3.87
2022-10-24T17:07:04.259Z,4.17
2022-10-24T17:09:32.564Z,6.73
2022-10-24T17:12:00.637Z,7.20
2022-10-24T17:14:28.788Z,5.07
2022-10-24T17:16:57.400Z,4.10
2022-10-24T17:19:26.909Z,6.03
2022-10-24T17:21:55.545Z,3.17
2022-10-24T17:24:26.503Z,3.87
2022-10-24T17:26:55.372Z,5.50
2022-10-24T17:29:28.356Z,9.57
2022-10-24T17:31:58.088Z,4.57
2022-10-24T17:34:28.627Z,5.60
2022-10-24T17:37:07.840Z,4.77
2022-10-24T17:39:45.734Z,7.63
2022-10-24T17:42:14.460Z,6.43
2022-10-24T17:44:44.038Z,6.77
2022-10-24T17:47:13.233Z,5.33
2022-10-24T17:49:42.885Z,8.37
2022-10-24T17:52:13.608Z,8.70
2022-10-24T17:54:45.662Z,8.43
2022-10-24T17:57:14.050Z,6.07
2022-10-24T17:59:42.475Z,8.27
2022-10-24T18:02:14.073Z,9.50
2022-10-24T18:04:44.949Z,9.17
2022-10-24T18:07:13.118Z,8.80
2022-10-24T18:09:42.053Z,9.20
2022-10-24T18:12:10.397Z,8.50
2022-10-24T18:14:38.757Z,8.87
2022-10-24T18:17:06.930Z,7.17
2022-10-24T18:19:35.070Z,7.50
2022-10-24T18:22:04.634Z,10.60
2022-10-24T18:24:33.390Z,7.83
2022-10-24T18:27:01.527Z,6.37
2022-10-24T18:29:29.752Z,9.73
2022-10-24T18:31:58.314Z,12.00
2022-10-24T18:34:27.166Z,8.83
2022-10-24T18:36:55.308Z,8.30
2022-10-24T18:39:27.779Z,8.93
2022-10-24T18:42:05.088Z,8.23
2022-10-24T18:44:35.261Z,10.57
2022-10-24T18:47:08.111Z,9.40
2022-10-24T18:49:37.219Z,9.13
2022-10-24T18:52:19.655Z,9.63
2022-10-24T18:55:14.506Z,12.40
2022-10-24T18:57:45.484Z,10.07
2022-10-24T19:00:18.452Z,9.47
2022-10-24T19:02:57.199Z,10.63
2022-10-24T19:05:42.706Z,11.70
2022-10-24T19:08:17.864Z,8.10
2022-10-24T19:10:47.901Z,7.40
2022-10-24T19:13:16.466Z,9.60
2022-10-24T19:15:49.103Z,10.07
2022-10-24T19:18:19.444Z,13.37
2022-10-24T19:20:47.731Z,7.93
2022-10-24T19:23:17.407Z,9.20
2022-10-24T19:25:48.292Z,10.17
2022-10-24T19:28:19.348Z,6.97
2022-10-24T19:30:49.445Z,9.90
2022-10-24T19:33:18.774Z,11.33
2022-10-24T19:35:48.185Z,10.90
2022-10-24T19:38:18.130Z,9.83
2022-10-24T19:40:49.620Z,9.53
2022-10-24T19:43:17.780Z,9.80
2022-10-24T19:45:50.419Z,14.60
2022-10-24T19:48:33.479Z,9.27
2022-10-24T19:51:06.168Z,14.23
2022-10-24T19:53:35.870Z,7.57
2022-10-24T19:56:07.761Z,11.13
2022-10-24T19:58:36.985Z,13.20
2022-10-24T20:01:07.442Z,11.47
2022-10-24T20:03:38.130Z,10.83
2022-10-24T20:06:08.912Z,10.67
2022-10-24T20:08:37.987Z,11.23
2022-10-24T20:11:08.685Z,11.20
2022-10-24T20:13:37.326Z,8.93
2022-10-24T20:16:08.208Z,11.47
2022-10-24T20:18:38.691Z,9.57
2022-10-24T20:21:13.172Z,9.77
2022-10-24T20:23:42.180Z,12.77
2022-10-24T20:26:15.036Z,12.23
2022-10-24T20:28:45.810Z,12.63
2022-10-24T20:31:22.630Z,9.93
2022-10-24T20:33:51.537Z,12.90
2022-10-24T20:36:22.006Z,12.80
2022-10-24T20:38:50.833Z,13.40
2022-10-24T20:41:20.806Z,12.47
2022-10-24T20:46:18.003Z,10.93
2022-10-24T20:48:46.059Z,12.37
2022-10-24T20:51:16.075Z,10.37
2022-10-24T20:53:44.658Z,11.77
2022-10-24T20:56:15.149Z,13.63
2022-10-24T20:58:46.034Z,12.70
2022-10-24T21:01:16.932Z,9.80
2022-10-24T21:03:45.969Z,14.43
2022-10-24T21:06:19.892Z,16.53
2022-10-24T21:08:49.793Z,19.53
2022-10-24T21:11:24.585Z,13.17
2022-10-24T21:13:57.809Z,14.13
2022-10-24T21:16:26.702Z,10.67
2022-10-24T21:18:55.542Z,9.37
2022-10-24T21:21:23.878Z,13.63
2022-10-24T21:23:53.298Z,13.73
2022-10-24T21:26:21.901Z,9.97
2022-10-24T21:28:53.996Z,17.30
2022-10-24T21:31:28.867Z,13.17
2022-10-24T21:33:56.947Z,13.30
2022-10-24T21:36:25.498Z,11.77
2022-10-24T21:38:57.029Z,12.30
2022-10-24T21:41:26.150Z,12.33
2022-10-24T21:43:56.048Z,12.57
2022-10-24T21:46:26.801Z,15.13
2022-10-24T21:48:57.387Z,14.63
2022-10-24T21:51:28.354Z,13.17
2022-10-24T21:53:58.389Z,13.13
2022-10-24T21:56:30.517Z,17.87
2022-10-24T22:01:37.326Z,14.03
2022-10-24T22:04:08.167Z,12.03
2022-10-24T22:06:37.649Z,13.23
2022-10-24T22:09:08.233Z,10.87
2022-10-24T22:11:37.673Z,14.73
2022-10-24T22:14:07.329Z,15.17
2022-10-24T22:16:35.523Z,13.50
2022-10-24T22:19:07.284Z,11.57
2022-10-24T22:21:37.966Z,10.37
2022-10-24T22:24:08.956Z,10.27
2022-10-24T22:26:38.065Z,12.77
2022-10-24T22:29:07.810Z,11.57
2022-10-24T22:31:37.959Z,13.60
2022-10-24T22:34:09.116Z,12.50
2022-10-24T22:36:49.757Z,11.17
2022-10-24T22:39:21.481Z,10.90
2022-10-24T22:41:50.788Z,11.70
2022-10-24T22:44:21.579Z,15.50
2022-10-24T22:47:38.038Z,18.47
2022-10-24T22:50:31.022Z,12.23
2022-10-24T22:52:59.905Z,12.53
2022-10-24T22:55:36.097Z,16.03
2022-10-24T22:58:05.198Z,16.10
2022-10-24T23:00:33.963Z,18.77
2022-10-24T23:03:11.900Z,15.63
2022-10-24T23:08:33.694Z,15.63
2022-10-24T23:11:02.496Z,16.93
2022-10-24T23:13:31.313Z,14.10
2022-10-24T23:16:07.824Z,20.73
2022-10-24T23:18:36.754Z,19.53
2022-10-24T23:21:17.021Z,18.43
2022-10-24T23:23:45.898Z,18.33
2022-10-24T23:26:27.185Z,20.40
2022-10-24T23:29:02.780Z,18.80
2022-10-24T23:31:31.788Z,17.13
2022-10-24T23:34:00.594Z,21.40
2022-10-24T23:36:32.382Z,19.60
2022-10-24T23:39:01.935Z,19.03
2022-10-24T23:41:30.694Z,19.93
2022-10-24T23:43:59.580Z,20.70
2022-10-24T23:46:33.588Z,20.00
2022-10-24T23:49:20.234Z,21.93
2022-10-24T23:51:59.490Z,24.87
2022-10-24T23:54:32.938Z,25.63
2022-10-24T23:57:01.886Z,23.83
2022-10-24T23:59:30.081Z,23.83
